sensor_id;sensor_type;location;lat;lon;timestamp;P1;durP1;ratioP1;P2;durP2;ratioP2
26756;SDS011;23848;49.798;10.228;2023-12-29T00:01:29;3.20;;;1.50;;
26756;SDS011;23848;49.798;10.228;2023-12-29T00:03:58;2.75;;;1.60;;
26756;SDS011;23848;49.798;10.228;2023-12-29T00:06:26;2.75;;;1.50;;
26756;SDS011;23848;49.798;10.228;2023-12-29T00:08:55;3.10;;;1.70;;
26756;SDS011;23848;49.798;10.228;2023-12-29T00:11:24;2.15;;;1.17;;
26756;SDS011;23848;49.798;10.228;2023-12-29T00:13:52;2.88;;;1.70;;
26756;SDS011;23848;49.798;10.228;2023-12-29T00:16:21;2.28;;;1.50;;
26756;SDS011;23848;49.798;10.228;2023-12-29T00:18:49;3.08;;;1.50;;
26756;SDS011;23848;49.798;10.228;2023-12-29T00:21:18;2.85;;;1.35;;
26756;SDS011;23848;49.798;10.228;2023-12-29T00:23:47;2.55;;;1.38;;
26756;SDS011;23848;49.798;10.228;2023-12-29T00:26:15;2.58;;;1.50;;
26756;SDS011;23848;49.798;10.228;2023-12-29T00:28:45;2.03;;;1.13;;
26756;SDS011;23848;49.798;10.228;2023-12-29T00:31:14;2.75;;;1.30;;
26756;SDS011;23848;49.798;10.228;2023-12-29T00:33:43;2.80;;;1.48;;
26756;SDS011;23848;49.798;10.228;2023-12-29T00:36:14;2.28;;;1.20;;
26756;SDS011;23848;49.798;10.228;2023-12-29T00:38:42;2.60;;;1.50;;
26756;SDS011;23848;49.798;10.228;2023-12-29T00:41:10;2.50;;;1.17;;
26756;SDS011;23848;49.798;10.228;2023-12-29T00:43:39;2.72;;;1.55;;
26756;SDS011;23848;49.798;10.228;2023-12-29T00:46:20;2.63;;;1.40;;
26756;SDS011;23848;49.798;10.228;2023-12-29T00:48:48;3.58;;;1.52;;
26756;SDS011;23848;49.798;10.228;2023-12-29T00:51:17;2.50;;;1.58;;
26756;SDS011;23848;49.798;10.228;2023-12-29T00:53:45;2.70;;;1.50;;
26756;SDS011;23848;49.798;10.228;2023-12-29T00:56:14;2.75;;;1.50;;
26756;SDS011;23848;49.798;10.228;2023-12-29T00:58:42;2.70;;;1.50;;
26756;SDS011;23848;49.798;10.228;2023-12-29T01:01:12;2.67;;;1.30;;
26756;SDS011;23848;49.798;10.228;2023-12-29T01:03:40;3.75;;;1.65;;
26756;SDS011;23848;49.798;10.228;2023-12-29T01:06:09;2.10;;;1.30;;
26756;SDS011;23848;49.798;10.228;2023-12-29T01:08:37;2.42;;;1.38;;
26756;SDS011;23848;49.798;10.228;2023-12-29T01:11:05;3.55;;;1.50;;
26756;SDS011;23848;49.798;10.228;2023-12-29T01:13:34;2.97;;;1.75;;
26756;SDS011;23848;49.798;10.228;2023-12-29T01:16:02;2.47;;;1.30;;
26756;SDS011;23848;49.798;10.228;2023-12-29T01:18:32;2.72;;;1.60;;
26756;SDS011;23848;49.798;10.228;2023-12-29T01:21:00;2.75;;;1.60;;
26756;SDS011;23848;49.798;10.228;2023-12-29T01:23:29;2.95;;;1.70;;
26756;SDS011;23848;49.798;10.228;2023-12-29T01:25:57;2.38;;;1.48;;
26756;SDS011;23848;49.798;10.228;2023-12-29T01:28:26;2.90;;;1.65;;
26756;SDS011;23848;49.798;10.228;2023-12-29T01:30:53;2.42;;;1.23;;
26756;SDS011;23848;49.798;10.228;2023-12-29T01:33:21;2.30;;;1.20;;
26756;SDS011;23848;49.798;10.228;2023-12-29T01:35:51;2.53;;;1.52;;
26756;SDS011;23848;49.798;10.228;2023-12-29T01:38:19;3.50;;;1.70;;
26756;SDS011;23848;49.798;10.228;2023-12-29T01:40:48;3.10;;;1.38;;
26756;SDS011;23848;49.798;10.228;2023-12-29T01:43:16;2.58;;;1.52;;
26756;SDS011;23848;49.798;10.228;2023-12-29T01:45:44;2.00;;;1.30;;
26756;SDS011;23848;49.798;10.228;2023-12-29T01:48:23;2.50;;;1.45;;
26756;SDS011;23848;49.798;10.228;2023-12-29T01:50:53;2.25;;;1.48;;
26756;SDS011;23848;49.798;10.228;2023-12-29T01:53:23;2.83;;;1.52;;
26756;SDS011;23848;49.798;10.228;2023-12-29T01:56:07;2.30;;;1.50;;
26756;SDS011;23848;49.798;10.228;2023-12-29T01:58:36;2.45;;;1.60;;
26756;SDS011;23848;49.798;10.228;2023-12-29T02:01:05;2.28;;;1.33;;
26756;SDS011;23848;49.798;10.228;2023-12-29T02:03:35;2.97;;;1.60;;
26756;SDS011;23848;49.798;10.228;2023-12-29T02:06:06;3.30;;;1.75;;
26756;SDS011;23848;49.798;10.228;2023-12-29T02:08:34;2.47;;;1.65;;
26756;SDS011;23848;49.798;10.228;2023-12-29T02:11:03;3.55;;;1.98;;
26756;SDS011;23848;49.798;10.228;2023-12-29T02:13:32;2.97;;;1.65;;
26756;SDS011;23848;49.798;10.228;2023-12-29T02:16:02;2.80;;;1.83;;
26756;SDS011;23848;49.798;10.228;2023-12-29T02:18:35;3.42;;;1.60;;
26756;SDS011;23848;49.798;10.228;2023-12-29T02:21:06;3.42;;;2.05;;
26756;SDS011;23848;49.798;10.228;2023-12-29T02:23:34;2.85;;;1.77;;
26756;SDS011;23848;49.798;10.228;2023-12-29T02:26:07;2.75;;;1.77;;
26756;SDS011;23848;49.798;10.228;2023-12-29T02:28:35;3.00;;;1.80;;
26756;SDS011;23848;49.798;10.228;2023-12-29T02:31:05;3.75;;;1.85;;
26756;SDS011;23848;49.798;10.228;2023-12-29T02:33:36;3.33;;;1.70;;
26756;SDS011;23848;49.798;10.228;2023-12-29T02:36:05;3.50;;;2.10;;
26756;SDS011;23848;49.798;10.228;2023-12-29T02:38:34;4.07;;;2.30;;
26756;SDS011;23848;49.798;10.228;2023-12-29T02:41:04;3.35;;;2.10;;
26756;SDS011;23848;49.798;10.228;2023-12-29T02:43:33;4.13;;;2.40;;
26756;SDS011;23848;49.798;10.228;2023-12-29T02:46:01;3.47;;;2.20;;
26756;SDS011;23848;49.798;10.228;2023-12-29T02:48:30;3.60;;;2.33;;
26756;SDS011;23848;49.798;10.228;2023-12-29T02:50:58;3.15;;;1.75;;
26756;SDS011;23848;49.798;10.228;2023-12-29T02:53:27;5.18;;;2.38;;
26756;SDS011;23848;49.798;10.228;2023-12-29T02:55:55;3.63;;;2.60;;
26756;SDS011;23848;49.798;10.228;2023-12-29T02:58:25;4.00;;;2.17;;
26756;SDS011;23848;49.798;10.228;2023-12-29T03:00:53;3.50;;;2.15;;
26756;SDS011;23848;49.798;10.228;2023-12-29T03:03:22;3.70;;;2.10;;
26756;SDS011;23848;49.798;10.228;2023-12-29T03:05:50;4.63;;;2.60;;
26756;SDS011;23848;49.798;10.228;2023-12-29T03:08:19;3.85;;;2.05;;
26756;SDS011;23848;49.798;10.228;2023-12-29T03:10:47;3.50;;;2.30;;
26756;SDS011;23848;49.798;10.228;2023-12-29T03:13:15;4.43;;;2.42;;
26756;SDS011;23848;49.798;10.228;2023-12-29T03:15:45;4.20;;;2.38;;
26756;SDS011;23848;49.798;10.228;2023-12-29T03:18:13;3.03;;;1.80;;
26756;SDS011;23848;49.798;10.228;2023-12-29T03:20:42;3.10;;;1.92;;
26756;SDS011;23848;49.798;10.228;2023-12-29T03:23:10;3.28;;;2.20;;
26756;SDS011;23848;49.798;10.228;2023-12-29T03:25:38;4.03;;;2.30;;
26756;SDS011;23848;49.798;10.228;2023-12-29T03:28:07;3.70;;;2.10;;
26756;SDS011;23848;49.798;10.228;2023-12-29T03:30:35;3.88;;;1.95;;
26756;SDS011;23848;49.798;10.228;2023-12-29T03:33:05;3.10;;;1.77;;
26756;SDS011;23848;49.798;10.228;2023-12-29T03:35:34;3.63;;;1.92;;
26756;SDS011;23848;49.798;10.228;2023-12-29T03:38:02;3.72;;;1.75;;
26756;SDS011;23848;49.798;10.228;2023-12-29T03:40:30;3.55;;;2.13;;
26756;SDS011;23848;49.798;10.228;2023-12-29T03:42:59;3.53;;;1.90;;
26756;SDS011;23848;49.798;10.228;2023-12-29T03:45:27;3.28;;;1.98;;
26756;SDS011;23848;49.798;10.228;2023-12-29T03:47:55;3.30;;;2.10;;
26756;SDS011;23848;49.798;10.228;2023-12-29T03:50:26;4.18;;;2.00;;
26756;SDS011;23848;49.798;10.228;2023-12-29T03:52:54;3.13;;;1.90;;
26756;SDS011;23848;49.798;10.228;2023-12-29T03:55:22;2.85;;;1.83;;
26756;SDS011;23848;49.798;10.228;2023-12-29T03:57:51;3.13;;;1.92;;
26756;SDS011;23848;49.798;10.228;2023-12-29T04:00:19;6.18;;;2.15;;
26756;SDS011;23848;49.798;10.228;2023-12-29T04:02:47;3.25;;;1.98;;
26756;SDS011;23848;49.798;10.228;2023-12-29T04:05:16;3.28;;;1.85;;
26756;SDS011;23848;49.798;10.228;2023-12-29T04:07:45;2.90;;;1.92;;
26756;SDS011;23848;49.798;10.228;2023-12-29T04:10:14;2.85;;;1.63;;
26756;SDS011;23848;49.798;10.228;2023-12-29T04:12:42;4.38;;;1.92;;
26756;SDS011;23848;49.798;10.228;2023-12-29T04:15:11;3.15;;;1.80;;
26756;SDS011;23848;49.798;10.228;2023-12-29T04:17:40;3.67;;;2.22;;
26756;SDS011;23848;49.798;10.228;2023-12-29T04:20:09;2.60;;;1.75;;
26756;SDS011;23848;49.798;10.228;2023-12-29T04:22:37;3.92;;;2.20;;
26756;SDS011;23848;49.798;10.228;2023-12-29T04:25:07;3.40;;;2.00;;
26756;SDS011;23848;49.798;10.228;2023-12-29T04:27:36;4.57;;;1.90;;
26756;SDS011;23848;49.798;10.228;2023-12-29T04:30:04;2.75;;;1.63;;
26756;SDS011;23848;49.798;10.228;2023-12-29T04:32:33;3.92;;;2.00;;
26756;SDS011;23848;49.798;10.228;2023-12-29T04:35:01;2.97;;;1.85;;
26756;SDS011;23848;49.798;10.228;2023-12-29T04:37:30;3.70;;;2.03;;
26756;SDS011;23848;49.798;10.228;2023-12-29T04:39:58;3.17;;;2.10;;
26756;SDS011;23848;49.798;10.228;2023-12-29T04:42:28;3.80;;;2.08;;
26756;SDS011;23848;49.798;10.228;2023-12-29T04:44:56;3.60;;;1.90;;
26756;SDS011;23848;49.798;10.228;2023-12-29T04:47:25;3.58;;;2.17;;
26756;SDS011;23848;49.798;10.228;2023-12-29T04:49:53;2.53;;;1.52;;
26756;SDS011;23848;49.798;10.228;2023-12-29T04:52:22;2.95;;;1.58;;
26756;SDS011;23848;49.798;10.228;2023-12-29T04:54:50;2.55;;;1.60;;
26756;SDS011;23848;49.798;10.228;2023-12-29T04:57:19;3.10;;;2.00;;
26756;SDS011;23848;49.798;10.228;2023-12-29T04:59:48;3.58;;;1.80;;
26756;SDS011;23848;49.798;10.228;2023-12-29T05:02:17;4.50;;;2.47;;
26756;SDS011;23848;49.798;10.228;2023-12-29T05:04:46;3.03;;;1.63;;
26756;SDS011;23848;49.798;10.228;2023-12-29T05:07:14;3.42;;;1.90;;
26756;SDS011;23848;49.798;10.228;2023-12-29T05:09:43;2.80;;;1.65;;
26756;SDS011;23848;49.798;10.228;2023-12-29T05:12:11;2.58;;;1.60;;
26756;SDS011;23848;49.798;10.228;2023-12-29T05:14:40;4.35;;;2.22;;
26756;SDS011;23848;49.798;10.228;2023-12-29T05:17:09;3.58;;;2.05;;
26756;SDS011;23848;49.798;10.228;2023-12-29T05:19:38;3.33;;;2.00;;
26756;SDS011;23848;49.798;10.228;2023-12-29T05:22:06;3.17;;;1.73;;
26756;SDS011;23848;49.798;10.228;2023-12-29T05:24:35;5.07;;;1.83;;
26756;SDS011;23848;49.798;10.228;2023-12-29T05:27:03;3.28;;;2.10;;
26756;SDS011;23848;49.798;10.228;2023-12-29T05:29:32;5.55;;;1.90;;
26756;SDS011;23848;49.798;10.228;2023-12-29T05:32:00;3.28;;;2.03;;
26756;SDS011;23848;49.798;10.228;2023-12-29T05:34:30;3.70;;;1.70;;
26756;SDS011;23848;49.798;10.228;2023-12-29T05:36:58;3.15;;;1.90;;
26756;SDS011;23848;49.798;10.228;2023-12-29T05:39:27;3.85;;;2.30;;
26756;SDS011;23848;49.798;10.228;2023-12-29T05:41:55;3.40;;;2.08;;
26756;SDS011;23848;49.798;10.228;2023-12-29T05:44:23;3.47;;;1.88;;
26756;SDS011;23848;49.798;10.228;2023-12-29T05:46:52;2.70;;;1.80;;
26756;SDS011;23848;49.798;10.228;2023-12-29T05:49:23;4.07;;;2.40;;
26756;SDS011;23848;49.798;10.228;2023-12-29T05:51:54;3.47;;;2.08;;
26756;SDS011;23848;49.798;10.228;2023-12-29T05:54:22;4.50;;;2.00;;
26756;SDS011;23848;49.798;10.228;2023-12-29T05:56:51;3.00;;;2.05;;
26756;SDS011;23848;49.798;10.228;2023-12-29T05:59:19;3.38;;;2.08;;
26756;SDS011;23848;49.798;10.228;2023-12-29T06:01:47;3.78;;;2.20;;
26756;SDS011;23848;49.798;10.228;2023-12-29T06:04:16;2.80;;;2.13;;
26756;SDS011;23848;49.798;10.228;2023-12-29T06:06:45;4.00;;;2.60;;
26756;SDS011;23848;49.798;10.228;2023-12-29T06:09:20;3.00;;;1.77;;
26756;SDS011;23848;49.798;10.228;2023-12-29T06:11:51;4.65;;;2.10;;
26756;SDS011;23848;49.798;10.228;2023-12-29T06:14:19;3.65;;;2.20;;
26756;SDS011;23848;49.798;10.228;2023-12-29T06:16:48;3.03;;;1.83;;
26756;SDS011;23848;49.798;10.228;2023-12-29T06:19:16;5.15;;;2.20;;
26756;SDS011;23848;49.798;10.228;2023-12-29T06:21:44;4.32;;;2.33;;
26756;SDS011;23848;49.798;10.228;2023-12-29T06:24:13;3.33;;;1.77;;
26756;SDS011;23848;49.798;10.228;2023-12-29T06:26:43;2.90;;;1.95;;
26756;SDS011;23848;49.798;10.228;2023-12-29T06:29:11;3.20;;;2.08;;
26756;SDS011;23848;49.798;10.228;2023-12-29T06:31:40;4.53;;;2.58;;
26756;SDS011;23848;49.798;10.228;2023-12-29T06:34:09;3.50;;;1.85;;
26756;SDS011;23848;49.798;10.228;2023-12-29T06:36:38;3.15;;;1.83;;
26756;SDS011;23848;49.798;10.228;2023-12-29T06:39:06;3.55;;;2.13;;
26756;SDS011;23848;49.798;10.228;2023-12-29T06:41:35;3.80;;;2.08;;
26756;SDS011;23848;49.798;10.228;2023-12-29T06:44:04;3.25;;;1.90;;
26756;SDS011;23848;49.798;10.228;2023-12-29T06:46:33;3.67;;;2.13;;
26756;SDS011;23848;49.798;10.228;2023-12-29T06:49:01;3.03;;;1.73;;
26756;SDS011;23848;49.798;10.228;2023-12-29T06:51:32;3.22;;;1.85;;
26756;SDS011;23848;49.798;10.228;2023-12-29T06:54:04;3.58;;;2.13;;
26756;SDS011;23848;49.798;10.228;2023-12-29T06:56:32;2.85;;;1.80;;
26756;SDS011;23848;49.798;10.228;2023-12-29T06:59:02;3.58;;;1.92;;
26756;SDS011;23848;49.798;10.228;2023-12-29T07:01:32;3.15;;;1.60;;
26756;SDS011;23848;49.798;10.228;2023-12-29T07:04:00;3.97;;;2.20;;
26756;SDS011;23848;49.798;10.228;2023-12-29T07:06:32;3.33;;;2.03;;
26756;SDS011;23848;49.798;10.228;2023-12-29T07:09:00;3.60;;;2.50;;
26756;SDS011;23848;49.798;10.228;2023-12-29T07:11:29;3.25;;;1.80;;
26756;SDS011;23848;49.798;10.228;2023-12-29T07:13:57;4.03;;;2.17;;
26756;SDS011;23848;49.798;10.228;2023-12-29T07:16:25;3.22;;;2.00;;
26756;SDS011;23848;49.798;10.228;2023-12-29T07:18:55;3.08;;;1.65;;
26756;SDS011;23848;49.798;10.228;2023-12-29T07:21:24;3.45;;;2.05;;
26756;SDS011;23848;49.798;10.228;2023-12-29T07:23:52;3.10;;;1.80;;
26756;SDS011;23848;49.798;10.228;2023-12-29T07:26:21;2.80;;;1.50;;
26756;SDS011;23848;49.798;10.228;2023-12-29T07:28:49;3.00;;;1.67;;
26756;SDS011;23848;49.798;10.228;2023-12-29T07:31:20;3.38;;;1.80;;
26756;SDS011;23848;49.798;10.228;2023-12-29T07:33:49;3.00;;;1.60;;
26756;SDS011;23848;49.798;10.228;2023-12-29T07:36:18;2.53;;;1.50;;
26756;SDS011;23848;49.798;10.228;2023-12-29T07:38:47;3.08;;;1.95;;
26756;SDS011;23848;49.798;10.228;2023-12-29T07:41:15;4.18;;;2.22;;
26756;SDS011;23848;49.798;10.228;2023-12-29T07:43:44;8.15;;;4.22;;
26756;SDS011;23848;49.798;10.228;2023-12-29T07:46:13;4.10;;;2.40;;
26756;SDS011;23848;49.798;10.228;2023-12-29T07:48:41;3.00;;;1.80;;
26756;SDS011;23848;49.798;10.228;2023-12-29T07:51:10;2.65;;;1.25;;
26756;SDS011;23848;49.798;10.228;2023-12-29T07:53:39;2.75;;;1.65;;
26756;SDS011;23848;49.798;10.228;2023-12-29T07:56:19;3.25;;;1.50;;
26756;SDS011;23848;49.798;10.228;2023-12-29T07:58:52;3.15;;;1.73;;
26756;SDS011;23848;49.798;10.228;2023-12-29T08:01:26;2.53;;;1.35;;
26756;SDS011;23848;49.798;10.228;2023-12-29T08:04:13;2.63;;;1.40;;
26756;SDS011;23848;49.798;10.228;2023-12-29T08:06:49;2.38;;;1.50;;
26756;SDS011;23848;49.798;10.228;2023-12-29T08:09:28;2.50;;;1.15;;
26756;SDS011;23848;49.798;10.228;2023-12-29T08:15:17;3.80;;;1.98;;
26756;SDS011;23848;49.798;10.228;2023-12-29T08:17:50;3.40;;;2.00;;
26756;SDS011;23848;49.798;10.228;2023-12-29T08:20:23;3.20;;;1.80;;
26756;SDS011;23848;49.798;10.228;2023-12-29T08:23:04;3.85;;;2.00;;
26756;SDS011;23848;49.798;10.228;2023-12-29T08:25:39;4.68;;;1.60;;
26756;SDS011;23848;49.798;10.228;2023-12-29T08:28:14;2.35;;;1.33;;
26756;SDS011;23848;49.798;10.228;2023-12-29T08:30:58;2.58;;;1.33;;
26756;SDS011;23848;49.798;10.228;2023-12-29T08:33:37;3.10;;;1.50;;
26756;SDS011;23848;49.798;10.228;2023-12-29T08:36:11;2.58;;;1.30;;
26756;SDS011;23848;49.798;10.228;2023-12-29T08:38:44;2.47;;;1.40;;
26756;SDS011;23848;49.798;10.228;2023-12-29T08:41:40;1.88;;;1.05;;
26756;SDS011;23848;49.798;10.228;2023-12-29T08:44:07;3.95;;;2.03;;
26756;SDS011;23848;49.798;10.228;2023-12-29T08:46:41;2.45;;;1.30;;
26756;SDS011;23848;49.798;10.228;2023-12-29T08:49:22;3.40;;;1.48;;
26756;SDS011;23848;49.798;10.228;2023-12-29T08:52:22;2.10;;;1.30;;
26756;SDS011;23848;49.798;10.228;2023-12-29T08:54:54;2.30;;;1.23;;
26756;SDS011;23848;49.798;10.228;2023-12-29T08:57:32;3.50;;;1.48;;
26756;SDS011;23848;49.798;10.228;2023-12-29T09:00:14;2.35;;;1.30;;
26756;SDS011;23848;49.798;10.228;2023-12-29T09:03:01;2.65;;;1.35;;
26756;SDS011;23848;49.798;10.228;2023-12-29T09:05:53;2.38;;;1.30;;
26756;SDS011;23848;49.798;10.228;2023-12-29T09:08:28;2.15;;;1.20;;
26756;SDS011;23848;49.798;10.228;2023-12-29T09:11:12;2.40;;;1.30;;
26756;SDS011;23848;49.798;10.228;2023-12-29T09:13:59;2.53;;;1.25;;
26756;SDS011;23848;49.798;10.228;2023-12-29T09:16:36;2.58;;;1.08;;
26756;SDS011;23848;49.798;10.228;2023-12-29T09:19:08;4.90;;;1.52;;
26756;SDS011;23848;49.798;10.228;2023-12-29T09:21:53;2.33;;;1.40;;
26756;SDS011;23848;49.798;10.228;2023-12-29T09:24:31;2.67;;;1.30;;
26756;SDS011;23848;49.798;10.228;2023-12-29T09:27:15;1.90;;;1.23;;
26756;SDS011;23848;49.798;10.228;2023-12-29T09:29:58;2.63;;;1.38;;
26756;SDS011;23848;49.798;10.228;2023-12-29T09:32:39;1.95;;;1.10;;
26756;SDS011;23848;49.798;10.228;2023-12-29T09:35:22;2.25;;;1.27;;
26756;SDS011;23848;49.798;10.228;2023-12-29T09:38:16;1.88;;;1.08;;
26756;SDS011;23848;49.798;10.228;2023-12-29T09:41:04;2.15;;;1.20;;
26756;SDS011;23848;49.798;10.228;2023-12-29T09:43:40;2.15;;;1.10;;
26756;SDS011;23848;49.798;10.228;2023-12-29T09:46:21;1.58;;;0.90;;
26756;SDS011;23848;49.798;10.228;2023-12-29T09:49:01;1.70;;;1.17;;
26756;SDS011;23848;49.798;10.228;2023-12-29T09:51:50;2.90;;;1.10;;
26756;SDS011;23848;49.798;10.228;2023-12-29T09:54:38;1.92;;;1.00;;
26756;SDS011;23848;49.798;10.228;2023-12-29T09:57:25;2.00;;;1.15;;
26756;SDS011;23848;49.798;10.228;2023-12-29T10:00:12;3.35;;;1.10;;
26756;SDS011;23848;49.798;10.228;2023-12-29T10:05:51;2.55;;;1.20;;
26756;SDS011;23848;49.798;10.228;2023-12-29T10:08:34;2.75;;;1.40;;
26756;SDS011;23848;49.798;10.228;2023-12-29T10:11:16;4.38;;;1.85;;
26756;SDS011;23848;49.798;10.228;2023-12-29T10:13:57;2.75;;;1.70;;
26756;SDS011;23848;49.798;10.228;2023-12-29T10:16:47;2.70;;;1.08;;
26756;SDS011;23848;49.798;10.228;2023-12-29T10:19:27;2.53;;;1.45;;
26756;SDS011;23848;49.798;10.228;2023-12-29T10:22:10;2.95;;;1.40;;
26756;SDS011;23848;49.798;10.228;2023-12-29T10:24:47;2.78;;;1.38;;
26756;SDS011;23848;49.798;10.228;2023-12-29T10:27:20;2.42;;;1.50;;
26756;SDS011;23848;49.798;10.228;2023-12-29T10:30:17;3.45;;;1.20;;
26756;SDS011;23848;49.798;10.228;2023-12-29T10:33:06;2.33;;;1.35;;
26756;SDS011;23848;49.798;10.228;2023-12-29T10:35:57;1.95;;;1.10;;
26756;SDS011;23848;49.798;10.228;2023-12-29T10:38:45;2.10;;;1.30;;
26756;SDS011;23848;49.798;10.228;2023-12-29T10:41:22;1.73;;;1.10;;
26756;SDS011;23848;49.798;10.228;2023-12-29T11:34:16;1.70;;;0.98;;
26756;SDS011;23848;49.798;10.228;2023-12-29T11:39:56;1.60;;;1.00;;
26756;SDS011;23848;49.798;10.228;2023-12-29T11:42:37;1.50;;;0.90;;
26756;SDS011;23848;49.798;10.228;2023-12-29T11:45:30;1.38;;;0.77;;
26756;SDS011;23848;49.798;10.228;2023-12-29T11:48:20;2.92;;;1.30;;
26756;SDS011;23848;49.798;10.228;2023-12-29T11:51:29;3.03;;;1.48;;
26756;SDS011;23848;49.798;10.228;2023-12-29T11:54:22;2.35;;;1.35;;
26756;SDS011;23848;49.798;10.228;2023-12-29T11:57:02;2.13;;;1.20;;
26756;SDS011;23848;49.798;10.228;2023-12-29T12:00:10;2.28;;;1.20;;
26756;SDS011;23848;49.798;10.228;2023-12-29T12:02:53;1.65;;;0.98;;
26756;SDS011;23848;49.798;10.228;2023-12-29T12:05:55;1.60;;;0.98;;
26756;SDS011;23848;49.798;10.228;2023-12-29T12:30:33;1.83;;;1.20;;
26756;SDS011;23848;49.798;10.228;2023-12-29T12:33:38;2.22;;;1.20;;
26756;SDS011;23848;49.798;10.228;2023-12-29T12:37:20;2.25;;;1.30;;
26756;SDS011;23848;49.798;10.228;2023-12-29T13:10:50;2.55;;;1.10;;
26756;SDS011;23848;49.798;10.228;2023-12-29T16:27:59;1.75;;;1.13;;
26756;SDS011;23848;49.798;10.228;2023-12-29T16:30:28;2.42;;;1.50;;
26756;SDS011;23848;49.798;10.228;2023-12-29T16:32:56;2.13;;;1.00;;
26756;SDS011;23848;49.798;10.228;2023-12-29T16:35:47;3.22;;;1.80;;
26756;SDS011;23848;49.798;10.228;2023-12-29T16:38:16;1.75;;;1.02;;
26756;SDS011;23848;49.798;10.228;2023-12-29T16:40:46;1.73;;;0.95;;
26756;SDS011;23848;49.798;10.228;2023-12-29T16:43:16;1.67;;;1.13;;
26756;SDS011;23848;49.798;10.228;2023-12-29T16:45:45;2.05;;;1.25;;
26756;SDS011;23848;49.798;10.228;2023-12-29T16:48:15;2.83;;;1.50;;
26756;SDS011;23848;49.798;10.228;2023-12-29T16:50:47;2.38;;;1.30;;
26756;SDS011;23848;49.798;10.228;2023-12-29T16:53:18;1.58;;;0.90;;
26756;SDS011;23848;49.798;10.228;2023-12-29T16:55:48;1.65;;;0.80;;
26756;SDS011;23848;49.798;10.228;2023-12-29T16:58:18;2.10;;;1.20;;
26756;SDS011;23848;49.798;10.228;2023-12-29T17:00:47;2.42;;;1.05;;
26756;SDS011;23848;49.798;10.228;2023-12-29T17:03:17;2.50;;;1.20;;
26756;SDS011;23848;49.798;10.228;2023-12-29T17:06:06;3.05;;;1.38;;
26756;SDS011;23848;49.798;10.228;2023-12-29T17:08:34;2.75;;;1.40;;
26756;SDS011;23848;49.798;10.228;2023-12-29T17:11:05;2.30;;;1.33;;
26756;SDS011;23848;49.798;10.228;2023-12-29T17:13:38;3.92;;;1.48;;
26756;SDS011;23848;49.798;10.228;2023-12-29T17:16:11;3.40;;;1.77;;
26756;SDS011;23848;49.798;10.228;2023-12-29T17:18:44;1.95;;;1.25;;
26756;SDS011;23848;49.798;10.228;2023-12-29T17:21:12;2.45;;;1.20;;
26756;SDS011;23848;49.798;10.228;2023-12-29T17:23:47;2.58;;;1.42;;
26756;SDS011;23848;49.798;10.228;2023-12-29T17:26:17;2.83;;;1.45;;
26756;SDS011;23848;49.798;10.228;2023-12-29T17:28:51;1.67;;;0.88;;
26756;SDS011;23848;49.798;10.228;2023-12-29T17:31:26;1.95;;;0.85;;
26756;SDS011;23848;49.798;10.228;2023-12-29T17:34:16;3.15;;;1.23;;
26756;SDS011;23848;49.798;10.228;2023-12-29T17:36:45;1.80;;;1.02;;
26756;SDS011;23848;49.798;10.228;2023-12-29T17:39:13;2.88;;;1.65;;
26756;SDS011;23848;49.798;10.228;2023-12-29T17:41:47;3.25;;;1.27;;
26756;SDS011;23848;49.798;10.228;2023-12-29T17:44:19;2.35;;;1.27;;
26756;SDS011;23848;49.798;10.228;2023-12-29T17:46:49;2.22;;;1.10;;
26756;SDS011;23848;49.798;10.228;2023-12-29T17:49:22;2.30;;;1.20;;
26756;SDS011;23848;49.798;10.228;2023-12-29T17:51:54;2.88;;;1.60;;
26756;SDS011;23848;49.798;10.228;2023-12-29T17:54:24;2.17;;;1.38;;
26756;SDS011;23848;49.798;10.228;2023-12-29T17:56:53;2.17;;;1.20;;
26756;SDS011;23848;49.798;10.228;2023-12-29T17:59:23;2.40;;;1.30;;
26756;SDS011;23848;49.798;10.228;2023-12-29T18:01:51;4.40;;;1.80;;
26756;SDS011;23848;49.798;10.228;2023-12-29T18:04:25;2.75;;;1.60;;
26756;SDS011;23848;49.798;10.228;2023-12-29T18:06:53;3.28;;;1.88;;
26756;SDS011;23848;49.798;10.228;2023-12-29T18:09:36;2.67;;;1.33;;
26756;SDS011;23848;49.798;10.228;2023-12-29T18:12:08;1.77;;;1.00;;
26756;SDS011;23848;49.798;10.228;2023-12-29T18:14:52;1.85;;;1.13;;
26756;SDS011;23848;49.798;10.228;2023-12-29T18:17:31;2.08;;;1.20;;
26756;SDS011;23848;49.798;10.228;2023-12-29T18:20:06;1.95;;;1.25;;
26756;SDS011;23848;49.798;10.228;2023-12-29T18:22:55;2.35;;;1.08;;
26756;SDS011;23848;49.798;10.228;2023-12-29T18:25:38;2.35;;;1.05;;
26756;SDS011;23848;49.798;10.228;2023-12-29T18:28:04;1.88;;;0.98;;
26756;SDS011;23848;49.798;10.228;2023-12-29T18:30:39;2.90;;;1.10;;
26756;SDS011;23848;49.798;10.228;2023-12-29T18:33:10;1.55;;;1.00;;
26756;SDS011;23848;49.798;10.228;2023-12-29T18:35:45;1.80;;;0.95;;
26756;SDS011;23848;49.798;10.228;2023-12-29T18:38:13;2.00;;;0.90;;
26756;SDS011;23848;49.798;10.228;2023-12-29T18:40:42;3.40;;;1.15;;
26756;SDS011;23848;49.798;10.228;2023-12-29T18:43:10;1.73;;;0.98;;
26756;SDS011;23848;49.798;10.228;2023-12-29T18:45:43;1.67;;;0.90;;
26756;SDS011;23848;49.798;10.228;2023-12-29T18:48:22;2.50;;;1.30;;
26756;SDS011;23848;49.798;10.228;2023-12-29T18:50:58;2.22;;;1.20;;
26756;SDS011;23848;49.798;10.228;2023-12-29T18:53:27;2.67;;;1.30;;
26756;SDS011;23848;49.798;10.228;2023-12-29T18:56:04;3.38;;;1.60;;
26756;SDS011;23848;49.798;10.228;2023-12-29T18:58:32;4.32;;;1.70;;
26756;SDS011;23848;49.798;10.228;2023-12-29T19:01:03;3.53;;;1.60;;
26756;SDS011;23848;49.798;10.228;2023-12-29T19:03:32;2.00;;;1.10;;
26756;SDS011;23848;49.798;10.228;2023-12-29T19:06:07;3.67;;;1.60;;
26756;SDS011;23848;49.798;10.228;2023-12-29T19:08:40;5.35;;;1.95;;
26756;SDS011;23848;49.798;10.228;2023-12-29T19:11:17;2.17;;;1.05;;
26756;SDS011;23848;49.798;10.228;2023-12-29T19:13:48;3.25;;;1.85;;
26756;SDS011;23848;49.798;10.228;2023-12-29T19:19:19;2.28;;;1.20;;
26756;SDS011;23848;49.798;10.228;2023-12-29T19:21:51;2.80;;;1.50;;
26756;SDS011;23848;49.798;10.228;2023-12-29T19:24:21;2.92;;;1.50;;
26756;SDS011;23848;49.798;10.228;2023-12-29T19:26:50;3.33;;;1.50;;
26756;SDS011;23848;49.798;10.228;2023-12-29T19:29:23;2.08;;;1.05;;
26756;SDS011;23848;49.798;10.228;2023-12-29T19:31:52;2.47;;;1.40;;
26756;SDS011;23848;49.798;10.228;2023-12-29T19:34:22;2.00;;;1.20;;
26756;SDS011;23848;49.798;10.228;2023-12-29T19:36:51;3.00;;;1.00;;
26756;SDS011;23848;49.798;10.228;2023-12-29T19:39:19;2.30;;;1.30;;
26756;SDS011;23848;49.798;10.228;2023-12-29T19:42:00;2.50;;;1.27;;
26756;SDS011;23848;49.798;10.228;2023-12-29T19:44:29;3.05;;;1.13;;
26756;SDS011;23848;49.798;10.228;2023-12-29T19:46:59;3.38;;;1.20;;
26756;SDS011;23848;49.798;10.228;2023-12-29T19:49:30;2.28;;;1.20;;
26756;SDS011;23848;49.798;10.228;2023-12-29T19:52:03;1.88;;;1.10;;
26756;SDS011;23848;49.798;10.228;2023-12-29T19:54:31;2.15;;;0.93;;
26756;SDS011;23848;49.798;10.228;2023-12-29T19:56:59;2.38;;;1.20;;
26756;SDS011;23848;49.798;10.228;2023-12-29T19:59:28;3.30;;;1.25;;
26756;SDS011;23848;49.798;10.228;2023-12-29T20:01:57;2.72;;;1.10;;
26756;SDS011;23848;49.798;10.228;2023-12-29T20:04:27;3.33;;;1.20;;
26756;SDS011;23848;49.798;10.228;2023-12-29T20:06:57;1.58;;;0.85;;
26756;SDS011;23848;49.798;10.228;2023-12-29T20:09:26;3.50;;;1.20;;
26756;SDS011;23848;49.798;10.228;2023-12-29T20:11:54;1.83;;;1.20;;
26756;SDS011;23848;49.798;10.228;2023-12-29T20:14:25;1.98;;;0.98;;
26756;SDS011;23848;49.798;10.228;2023-12-29T20:16:54;3.15;;;1.27;;